createdAt,value
2023-01-23T06:00:49.987Z,18.25
2023-01-23T06:03:35.658Z,20.33
2023-01-23T06:06:22.561Z,22.83
2023-01-23T06:08:49.846Z,25.52
2023-01-23T06:11:16.562Z,22.98
2023-01-23T06:13:43.866Z,22.15
2023-01-23T06:16:11.162Z,23.50
2023-01-23T06:18:38.776Z,22.10
2023-01-23T06:21:06.154Z,19.58
2023-01-23T06:23:34.776Z,22.33
2023-01-23T06:26:02.834Z,21.48
2023-01-23T06:31:02.331Z,23.75
2023-01-23T06:33:49.929Z,20.00
2023-01-23T06:36:17.538Z,20.85
2023-01-23T06:38:44.862Z,23.88
2023-01-23T06:41:12.945Z,16.73
2023-01-23T06:43:46.717Z,21.58
2023-01-23T06:46:19.800Z,24.02
2023-01-23T06:48:47.040Z,25.35
2023-01-23T06:51:13.723Z,25.25
2023-01-23T06:53:43.965Z,24.80
2023-01-23T06:56:12.104Z,21.85
2023-01-23T06:58:39.684Z,21.50
2023-01-23T07:01:13.059Z,25.52
2023-01-23T07:04:13.053Z,17.95
2023-01-23T07:06:41.083Z,23.20
2023-01-23T07:09:09.339Z,19.67
2023-01-23T07:11:37.306Z,24.25
2023-01-23T07:14:06.120Z,20.50
2023-01-23T07:16:35.872Z,22.55
2023-01-23T07:19:04.366Z,24.48
2023-01-23T07:21:32.919Z,25.58
2023-01-23T07:24:00.252Z,24.65
2023-01-23T07:26:26.826Z,24.55
2023-01-23T07:28:54.268Z,23.67
2023-01-23T07:31:20.962Z,22.90
2023-01-23T07:33:48.557Z,24.52
2023-01-23T07:36:15.305Z,25.33
2023-01-23T07:38:42.574Z,23.88
2023-01-23T07:41:09.171Z,22.88
2023-01-23T07:43:36.467Z,28.92
2023-01-23T07:46:03.485Z,23.60
2023-01-23T07:48:30.501Z,26.08
2023-01-23T07:50:57.164Z,27.13
2023-01-23T07:53:24.359Z,26.27
2023-01-23T07:55:50.967Z,26.88
2023-01-23T07:58:18.215Z,29.13
2023-01-23T08:00:45.785Z,31.13
2023-01-23T08:03:12.828Z,26.50
2023-01-23T08:05:39.609Z,24.42
2023-01-23T08:08:13.591Z,26.50
2023-01-23T08:10:41.256Z,24.95
2023-01-23T08:13:08.523Z,24.60
2023-01-23T08:15:37.171Z,22.83
2023-01-23T08:18:04.525Z,28.85
2023-01-23T08:20:31.117Z,24.20
2023-01-23T08:22:59.319Z,24.50
2023-01-23T08:25:26.021Z,20.15
2023-01-23T08:27:53.278Z,21.40
2023-01-23T08:30:20.250Z,22.17
2023-01-23T08:32:47.697Z,28.85
2023-01-23T08:35:14.455Z,22.15
2023-01-23T08:37:42.527Z,20.02
2023-01-23T08:40:10.004Z,20.95
2023-01-23T08:42:38.297Z,18.83
2023-01-23T08:45:05.227Z,17.70
2023-01-23T08:47:36.917Z,21.52
2023-01-23T08:50:05.573Z,27.65
2023-01-23T08:52:34.872Z,21.50
2023-01-23T08:55:01.498Z,20.98
2023-01-23T08:57:28.484Z,21.15
2023-01-23T08:59:55.085Z,22.35
2023-01-23T09:02:22.421Z,23.33
2023-01-23T09:04:50.144Z,23.08
2023-01-23T09:07:17.370Z,22.45
2023-01-23T09:09:44.021Z,21.70
2023-01-23T09:12:11.271Z,21.20
2023-01-23T09:14:37.894Z,22.60
2023-01-23T09:17:05.728Z,25.05
2023-01-23T09:19:32.905Z,23.20
2023-01-23T09:22:00.168Z,24.63
2023-01-23T09:24:26.732Z,21.80
2023-01-23T09:26:53.934Z,26.75
2023-01-23T09:29:20.527Z,22.38
2023-01-23T09:31:47.802Z,25.55
2023-01-23T09:34:16.959Z,24.73
2023-01-23T09:39:12.276Z,24.95
2023-01-23T09:41:40.256Z,29.38
2023-01-23T09:44:20.305Z,27.40
2023-01-23T09:46:55.271Z,24.95
2023-01-23T09:49:46.498Z,24.10
2023-01-23T09:52:18.756Z,23.35
2023-01-23T09:54:53.128Z,25.63
2023-01-23T09:57:35.841Z,24.40
2023-01-23T10:00:25.286Z,24.08
2023-01-23T10:02:56.774Z,24.67
2023-01-23T10:05:36.796Z,23.65
2023-01-23T10:08:19.309Z,23.77
2023-01-23T10:11:27.084Z,23.65
2023-01-23T10:14:20.783Z,22.80
2023-01-23T10:17:07.541Z,21.08
2023-01-23T10:19:47.007Z,25.60
2023-01-23T10:24:56.312Z,24.42
2023-01-23T10:27:35.976Z,23.30
2023-01-23T10:30:28.009Z,25.92
2023-01-23T10:32:59.401Z,24.80
2023-01-23T10:35:53.754Z,27.55
2023-01-23T10:38:27.771Z,24.70
2023-01-23T10:41:13.664Z,23.30
2023-01-23T10:43:51.699Z,27.83
2023-01-23T10:46:23.830Z,22.92
2023-01-23T10:48:51.994Z,25.33
2023-01-23T10:51:46.334Z,27.48
2023-01-23T10:54:30.380Z,25.17
2023-01-23T10:57:00.178Z,24.48
2023-01-23T10:59:32.489Z,23.93
2023-01-23T11:02:21.829Z,28.23
2023-01-23T11:04:51.872Z,25.63
2023-01-23T11:07:23.678Z,21.95
2023-01-23T11:10:07.224Z,24.98
2023-01-23T11:12:46.247Z,23.90
2023-01-23T11:15:32.219Z,27.03
2023-01-23T11:18:01.212Z,24.83
2023-01-23T11:20:27.961Z,23.67
2023-01-23T11:23:17.264Z,27.05
2023-01-23T11:25:54.919Z,24.08
2023-01-23T11:28:47.370Z,25.33
2023-01-23T11:31:21.620Z,22.73
2023-01-23T11:33:57.174Z,25.73
2023-01-23T11:36:54.861Z,24.08
2023-01-23T11:39:36.082Z,24.27
2023-01-23T11:42:03.399Z,23.55
2023-01-23T11:44:38.139Z,25.02
2023-01-23T11:47:30.611Z,26.98
2023-01-23T11:50:05.374Z,26.38
2023-01-23T11:52:38.435Z,27.52
2023-01-23T11:55:14.062Z,27.48
2023-01-23T11:58:02.912Z,29.98
2023-01-23T12:01:09.023Z,25.83
2023-01-23T12:04:20.413Z,24.83
2023-01-23T12:06:50.136Z,28.60
2023-01-23T12:12:17.146Z,22.25
2023-01-23T12:14:43.724Z,25.33
2023-01-23T12:17:27.927Z,26.75
2023-01-23T12:20:22.814Z,26.40
2023-01-23T12:23:02.130Z,28.63
2023-01-23T12:25:37.759Z,21.75
2023-01-23T12:28:25.201Z,24.58
2023-01-23T12:31:18.286Z,26.77
2023-01-23T12:33:47.697Z,25.95
2023-01-23T12:39:35.969Z,23.85
2023-01-23T12:42:08.963Z,30.50
2023-01-23T12:44:40.927Z,28.30
2023-01-23T12:47:13.274Z,28.98
2023-01-23T12:49:54.051Z,36.17
2023-01-23T12:52:33.275Z,40.38
2023-01-23T12:55:26.315Z,28.65
2023-01-23T12:58:08.379Z,27.35
2023-01-23T13:01:12.906Z,28.00
2023-01-23T13:03:47.192Z,26.48
2023-01-23T13:06:19.942Z,29.13
2023-01-23T13:09:02.764Z,26.65
2023-01-23T13:12:22.574Z,25.92
2023-01-23T13:15:14.673Z,30.08
2023-01-23T13:17:51.294Z,26.27
2023-01-23T13:21:12.129Z,26.27
2023-01-23T13:23:39.475Z,31.20
2023-01-23T13:26:23.368Z,27.77
2023-01-23T13:29:02.346Z,30.02
2023-01-23T13:31:50.651Z,28.27
2023-01-23T13:34:17.361Z,29.13
2023-01-23T13:36:49.851Z,24.85
2023-01-23T13:39:16.523Z,32.30
2023-01-23T13:42:14.933Z,27.15
2023-01-23T13:45:16.465Z,25.75
2023-01-23T14:22:44.613Z,29.98
2023-01-23T14:25:17.388Z,36.58
2023-01-23T14:27:53.426Z,35.75
2023-01-23T14:30:27.094Z,32.92
2023-01-23T14:32:55.430Z,29.10
2023-01-23T14:35:30.995Z,30.52
2023-01-23T14:38:01.298Z,28.00
2023-01-23T14:40:31.873Z,28.48
2023-01-23T14:43:10.075Z,33.92
2023-01-23T14:45:37.454Z,33.50
2023-01-23T14:48:08.097Z,26.80
2023-01-23T14:50:35.258Z,29.08
2023-01-23T14:53:05.484Z,28.98
2023-01-23T14:55:37.245Z,36.90
2023-01-23T14:58:05.131Z,37.53
2023-01-23T15:00:33.847Z,36.03
2023-01-23T15:03:01.196Z,34.45
2023-01-23T15:05:28.459Z,34.65
2023-01-23T15:08:03.320Z,30.80
2023-01-23T15:10:34.944Z,30.35
2023-01-23T15:13:05.880Z,34.33
2023-01-23T15:15:34.654Z,29.83
2023-01-23T15:18:03.841Z,31.55
2023-01-23T15:20:40.609Z,26.08
2023-01-23T15:23:24.290Z,25.23
2023-01-23T15:26:26.650Z,28.40
2023-01-23T15:29:26.212Z,28.08
2023-01-23T15:31:55.259Z,29.80
2023-01-23T15:34:26.492Z,32.50
2023-01-23T15:37:06.228Z,32.35
2023-01-23T15:39:42.373Z,32.58
2023-01-23T15:42:11.922Z,33.75
2023-01-23T15:44:40.163Z,33.65
2023-01-23T15:47:07.105Z,32.42
2023-01-23T15:49:36.576Z,39.78
2023-01-23T15:52:16.284Z,43.35
2023-01-23T15:54:44.084Z,37.97
2023-01-23T15:57:14.133Z,35.28
2023-01-23T15:59:41.497Z,28.38
2023-01-23T16:02:29.737Z,30.80
2023-01-23T16:04:57.700Z,29.25
2023-01-23T16:07:30.122Z,32.20
2023-01-23T16:09:58.057Z,30.80
2023-01-23T16:12:28.923Z,33.17
2023-01-23T16:14:57.683Z,30.75
2023-01-23T16:17:24.316Z,31.25
2023-01-23T16:19:51.200Z,28.67
2023-01-23T16:22:26.266Z,31.30
2023-01-23T16:24:53.862Z,27.25
2023-01-23T16:27:27.156Z,32.40
2023-01-23T16:29:55.086Z,30.55
2023-01-23T16:32:21.854Z,34.30
2023-01-23T16:34:49.232Z,40.80
2023-01-23T16:37:17.777Z,30.65
2023-01-23T16:39:47.650Z,33.25
2023-01-23T16:42:18.886Z,29.02
2023-01-23T16:44:46.100Z,28.65
2023-01-23T16:47:12.698Z,27.98
2023-01-23T16:49:51.420Z,29.88
2023-01-23T16:52:22.099Z,26.73
2023-01-23T16:54:52.485Z,26.40
2023-01-23T16:57:21.096Z,30.75
2023-01-23T16:59:50.175Z,29.17
2023-01-23T17:02:21.851Z,30.05
2023-01-23T17:04:49.378Z,29.95
2023-01-23T17:07:18.375Z,26.15
2023-01-23T17:09:47.671Z,27.25
2023-01-23T17:12:25.210Z,23.85
2023-01-23T17:14:52.903Z,32.58
2023-01-23T17:17:29.258Z,29.73
2023-01-23T17:19:57.820Z,30.90
2023-01-23T17:22:32.965Z,30.00
2023-01-23T17:25:00.175Z,33.08
2023-01-23T17:27:26.872Z,30.35
2023-01-23T17:29:54.081Z,33.10
2023-01-23T17:32:31.309Z,31.17
2023-01-23T17:35:02.976Z,34.90
2023-01-23T17:37:30.675Z,33.00
2023-01-23T17:39:57.842Z,33.55
2023-01-23T17:42:24.424Z,31.45
2023-01-23T17:44:51.290Z,36.50
2023-01-23T17:47:18.858Z,35.60
2023-01-23T17:49:51.862Z,31.25
2023-01-23T17:52:21.554Z,34.00
2023-01-23T17:54:49.385Z,27.95
2023-01-23T17:57:16.636Z,35.83
2023-01-23T17:59:43.254Z,33.28
2023-01-23T18:02:23.980Z,31.70
2023-01-23T18:04:51.052Z,31.05
2023-01-23T18:07:17.668Z,36.70
2023-01-23T18:09:44.646Z,34.38
2023-01-23T18:12:29.340Z,36.30
2023-01-23T18:15:05.935Z,34.38
2023-01-23T18:18:00.282Z,34.63
2023-01-23T18:20:28.796Z,35.03
2023-01-23T18:22:56.660Z,34.70
2023-01-23T18:25:26.455Z,37.10
2023-01-23T18:27:55.240Z,34.58
2023-01-23T18:30:38.998Z,35.28
2023-01-23T18:33:27.121Z,37.22
2023-01-23T18:36:19.458Z,38.53
2023-01-23T18:38:58.159Z,35.75
2023-01-23T18:41:27.761Z,36.22
2023-01-23T18:44:08.007Z,37.85
2023-01-23T18:46:35.413Z,35.53
2023-01-23T18:49:02.338Z,33.65
2023-01-23T18:51:42.556Z,36.90
2023-01-23T18:54:28.510Z,37.70
2023-01-23T18:56:57.935Z,32.75
2023-01-23T19:02:08.518Z,31.67
2023-01-23T19:04:46.762Z,39.80
2023-01-23T19:07:18.478Z,34.25
2023-01-23T19:09:47.343Z,34.17
2023-01-23T19:13:10.883Z,36.65
2023-01-23T19:15:40.694Z,33.78
2023-01-23T19:18:40.312Z,48.42
2023-01-23T19:21:10.552Z,40.75
2023-01-23T19:26:10.219Z,36.22
2023-01-23T19:28:38.556Z,38.33
2023-01-23T19:31:09.942Z,34.45
2023-01-23T19:33:36.609Z,29.40
2023-01-23T19:36:04.932Z,34.25
2023-01-23T19:38:31.491Z,34.47
2023-01-23T19:40:58.412Z,29.02
2023-01-23T19:43:25.268Z,31.83
2023-01-23T19:45:53.114Z,38.45
2023-01-23T19:48:19.690Z,32.40
2023-01-23T19:50:47.892Z,33.58
2023-01-23T19:53:14.657Z,30.23
2023-01-23T19:55:42.020Z,32.35
2023-01-23T19:58:09.054Z,27.50
2023-01-23T20:00:36.484Z,28.63
2023-01-23T20:03:04.929Z,33.47
2023-01-23T20:05:32.326Z,34.97
2023-01-23T20:07:59.118Z,34.55
2023-01-23T20:10:26.385Z,32.72
2023-01-23T20:12:54.254Z,32.70
2023-01-23T20:15:24.617Z,27.85
2023-01-23T20:17:52.210Z,26.77
2023-01-23T20:20:20.145Z,35.03
2023-01-23T20:22:47.321Z,29.50
2023-01-23T20:25:16.690Z,30.42
2023-01-23T20:27:44.187Z,28.17
2023-01-23T20:30:17.589Z,30.35
2023-01-23T20:32:44.409Z,28.23
2023-01-23T20:35:12.103Z,28.73
2023-01-23T20:37:39.034Z,28.98
2023-01-23T20:40:08.770Z,32.20
2023-01-23T20:42:36.123Z,36.92
2023-01-23T20:45:03.492Z,32.58
2023-01-23T20:47:30.534Z,31.30
2023-01-23T20:49:57.135Z,30.25
2023-01-23T20:52:43.175Z,30.15
2023-01-23T20:55:10.323Z,30.55
2023-01-23T20:57:55.222Z,28.40
2023-01-23T21:00:22.569Z,34.72
2023-01-23T21:02:49.333Z,29.17
2023-01-23T21:05:16.694Z,28.70
2023-01-23T21:07:43.435Z,29.52
2023-01-23T21:10:10.554Z,29.55
2023-01-23T21:12:37.805Z,31.85
2023-01-23T21:15:04.936Z,31.17
2023-01-23T21:17:31.911Z,30.23
2023-01-23T21:19:58.497Z,33.45
2023-01-23T21:22:25.716Z,30.25
2023-01-23T21:24:52.328Z,33.78
2023-01-23T21:27:21.272Z,31.42
